Latest Coastal Weather Observations for Noarlunga

IDS60701

Issued at 6:21 am CST Tuesday 19 June 2018 (issued every 10 minutes, with the page automatically refreshed every 10 minutes)

About coastal observations | Map of coastal stations | Coastal observations for SA | Marine services | Other Formats
Station Details ID: 023885 Name: NOARLUNGA Lat: -35.16 Lon: 138.51 Height: 55.0 m
Data from the previous 72 hours. | See also: Recent months at Noarlunga
Date/Time
CST
Temp
°C
Wind Pressure Rain since
9am
mm
Weather Cloud Vis
km
Sea
Height
m
Swell
Dir  Spd
kts
Gust
kts
hPa Trend Height
m
Period
s
Dir
19/06:00am 7.8 NE 3 5 - - 0.4 - - - - - - -
19/05:30am 8.8 NNE 5 7 - - 0.4 - - - - - - -
19/05:00am 8.6 NE 2 3 - - 0.4 - - - - - - -
19/04:30am 8.5 NE 3 5 - - 0.4 - - - - - - -
19/04:00am 8.5 NE 3 5 - - 0.4 - - - - - - -
19/03:30am 9.0 N 5 7 - - 0.4 - - - - - - -
19/03:00am 9.2 NNE 3 5 - - 0.4 - - - - - - -
19/02:30am 9.3 NE 3 5 - - 0.4 - - - - - - -
19/02:00am 9.5 NE 3 4 - - 0.4 - - - - - - -
19/01:30am 9.6 ENE 4 7 - - 0.4 - - - - - - -
19/01:00am 9.8 ENE 3 6 - - 0.4 - - - - - - -
19/12:30am 9.8 ENE 4 9 - - 0.4 - - - - - - -
19/12:00am 9.9 ENE 5 9 - - 0.4 - - - - - - -
 
Date/Time
CST
Temp
°C
Wind Pressure Rain since
9am
mm
Weather Cloud Vis
km
Sea
Height
m
Swell
Dir  Spd
kts
Gust
kts
hPa Trend Height
m
Period
s
Dir
18/11:30pm 10.1 NE 4 7 - - 0.4 - - - - - - -
18/11:00pm 10.3 NNE 2 5 - - 0.4 - - - - - - -
18/10:30pm 10.4 E 5 9 - - 0.4 - - - - - - -
18/10:00pm 10.3 E 3 4 - - 0.4 - - - - - - -
18/09:30pm 10.2 ENE 1 2 - - 0.4 - - - - - - -
18/09:00pm 9.9 E 3 4 - - 0.4 - - - - - - -
18/08:30pm 10.0 E 6 7 - - 0.4 - - - - - - -
18/08:00pm 10.1 E 4 5 - - 0.4 - - - - - - -
18/07:30pm 10.2 E 3 4 - - 0.4 - - - - - - -
18/07:00pm 10.4 ESE 3 4 - - 0.4 - - - - - - -
18/06:30pm 10.6 ESE 2 3 - - 0.4 - - - - - - -
18/06:00pm 10.6 CALM 0 0 - - 0.4 - - - - - - -
18/05:30pm 10.8 WNW 1 1 - - 0.4 - - - - - - -
18/05:00pm 10.9 WNW 1 3 - - 0.4 - - - - - - -
18/04:30pm 11.1 WNW 1 2 - - 0.4 - - - - - - -
18/04:00pm 11.4 WNW 2 3 - - 0.4 - - - - - - -
18/03:30pm 11.3 WNW 2 4 - - 0.4 - - - - - - -
18/03:00pm 11.6 WNW 4 6 - - 0.2 - - - - - - -
18/02:30pm 12.2 NW 4 9 - - 0.2 - - - - - - -
18/02:00pm 11.9 WNW 4 5 - - 0.2 - - - - - - -
18/01:30pm 11.4 SSE 1 2 - - 0.2 - - - - - - -
18/01:00pm 11.5 NW 3 4 - - 0.2 - - - - - - -
18/12:30pm 11.3 W 3 4 - - 0.2 - - - - - - -
18/12:00pm 10.7 WSW 2 3 - - 0.2 Recent precip. - - - - - -
18/11:30am 10.7 W 1 2 - - 0.2 - - - - - - -
18/11:00am 11.7 WSW 2 3 - - 0.0 - - - - - - -
18/10:30am 11.0 WSW 1 2 - - 0.0 - - - - - - -
18/10:00am 10.4 WSW 2 3 - - 0.0 - - - - - - -
18/09:30am 10.2 E 1 2 - - 0.0 - - - - - - -
18/09:00am 9.1 E 1 1 - - 0.2 - - - - - - -
18/08:30am 7.8 ESE 1 2 - - 0.2 - - - - - - -
18/08:00am 7.1 ESE 1 1 - - 0.2 - - - - - - -
18/07:30am 7.0 ESE 1 2 - - 0.2 - - - - - - -
18/07:00am 7.2 ESE 3 5 - - 0.2 - - - - - - -
18/06:30am 7.4 ESE 4 5 - - 0.2 - - - - - - -
18/06:00am 7.8 SE 4 8 - - 0.2 - - - - - - -
18/05:30am 7.4 SSE 3 5 - - 0.2 - - - - - - -
18/05:00am 6.5 WSW 2 5 - - 0.2 - - - - - - -
18/04:30am 6.4 ESE 2 4 - - 0.2 - - - - - - -
18/04:00am 6.9 SE 3 3 - - 0.2 - - - - - - -
18/03:30am 7.2 SE 2 3 - - 0.2 - - - - - - -
18/03:00am 8.0 SSE 3 5 - - 0.2 - - - - - - -
18/02:30am 9.3 S 5 8 - - 0.2 - - - - - - -
18/02:00am 9.2 S 4 6 - - 0.2 - - - - - - -
18/01:30am 9.7 SSW 3 5 - - 0.2 - - - - - - -
18/01:00am 10.2 S 6 10 - - 0.2 - - - - - - -
18/12:30am 9.7 SSW 3 5 - - 0.2 - - - - - - -
18/12:00am 9.5 SSW 3 5 - - 0.2 - - - - - - -
 
Date/Time
CST
Temp
°C
Wind Pressure Rain since
9am
mm
Weather Cloud Vis
km
Sea
Height
m
Swell
Dir  Spd
kts
Gust
kts
hPa Trend Height
m
Period
s
Dir
17/11:30pm 9.7 S 4 5 - - 0.2 - - - - - - -
17/11:00pm 9.5 S 5 6 - - 0.2 - - - - - - -
17/10:30pm 9.7 S 4 5 - - 0.2 - - - - - - -
17/10:00pm 9.8 S 3 5 - - 0.2 - - - - - - -
17/09:30pm 10.4 S 4 5 - - 0.2 - - - - - - -
17/09:00pm 10.3 SSW 4 6 - - 0.2 - - - - - - -
17/08:30pm 10.3 S 2 5 - - 0.2 - - - - - - -
17/08:00pm 10.3 S 6 9 - - 0.2 - - - - - - -
17/07:30pm 10.2 S 5 8 - - 0.2 - - - - - - -
17/07:00pm 9.8 S 5 8 - - 0.2 - - - - - - -
17/06:30pm 10.6 S 9 16 - - 0.2 - - - - - - -
17/06:00pm 10.0 S 3 4 - - 0.2 - - - - - - -
17/05:30pm 10.4 S 4 7 - - 0.2 - - - - - - -
17/05:00pm 11.1 S 7 10 - - 0.2 - - - - - - -
17/04:30pm 11.3 S 5 9 - - 0.2 - - - - - - -
17/04:00pm 11.1 SSW 4 6 - - 0.2 - - - - - - -
17/03:30pm 11.0 S 7 13 - - 0.2 - - - - - - -
17/03:00pm 12.0 SW 7 11 - - 0.2 - - - - - - -
17/02:30pm 11.1 SSW 5 10 - - 0.2 - - - - - - -
17/02:00pm 12.3 S 11 17 - - 0.2 - - - - - - -
17/01:30pm 13.4 SSW 10 17 - - 0.2 - - - - - - -
17/01:00pm 12.6 SSW 9 15 - - 0.2 - - - - - - -
17/12:30pm 11.3 S 11 21 - - 0.2 - - - - - - -
17/12:00pm 11.9 SSW 8 15 - - 0.2 Recent precip. - - - - - -
17/11:30am 12.0 SSW 8 18 - - 0.0 - - - - - - -
17/11:00am 11.1 SSW 7 11 - - 0.0 - - - - - - -
17/10:30am 11.6 S 7 10 - - 0.0 - - - - - - -
17/10:00am 11.2 S 6 8 - - 0.0 - - - - - - -
17/09:30am 11.4 SSW 6 10 - - 0.0 - - - - - - -
17/09:00am 10.7 SSW 8 12 - - 3.0 - - - - - - -
17/08:30am 10.8 SSW 9 19 - - 3.0 - - - - - - -
17/08:00am 9.6 S 6 10 - - 3.0 - - - - - - -
17/07:30am 9.9 S 9 16 - - 3.0 - - - - - - -
17/07:00am 9.5 SSW 5 10 - - 3.0 - - - - - - -
17/06:30am 9.9 SSW 7 13 - - 3.0 - - - - - - -
17/06:00am 9.8 S 7 11 - - 3.0 - - - - - - -
17/05:30am 10.1 SSW 8 18 - - 3.0 - - - - - - -
17/05:00am 10.0 SSW 6 18 - - 3.0 - - - - - - -
17/04:30am 9.5 SSW 8 14 - - 3.0 - - - - - - -
17/04:00am 9.2 SSW 6 9 - - 3.0 - - - - - - -
17/03:30am 9.2 S 6 10 - - 2.8 - - - - - - -
17/03:00am 9.7 SSW 8 14 - - 2.4 Recent precip. - - - - - -
17/02:30am 8.9 S 7 10 - - 2.4 - - - - - - -
17/02:00am 8.7 S 5 7 - - 2.0 - - - - - - -
17/01:30am 8.8 S 7 13 - - 2.0 - - - - - - -
17/01:00am 8.7 SSW 5 8 - - 2.0 - - - - - - -
17/12:30am 10.0 SSW 8 15 - - 1.8 - - - - - - -
17/12:00am 9.4 SSW 5 9 - - 1.8 - - - - - - -
 
Date/Time
CST
Temp
°C
Wind Pressure Rain since
9am
mm
Weather Cloud Vis
km
Sea
Height
m
Swell
Dir  Spd
kts
Gust
kts
hPa Trend Height
m
Period
s
Dir
16/11:30pm 9.9 SSW 8 19 - - 1.8 - - - - - - -
16/11:00pm 9.7 SSW 8 13 - - 1.8 - - - - - - -
16/10:30pm 8.5 SSW 4 6 - - 1.8 - - - - - - -
16/10:00pm 8.5 S 6 10 - - 1.8 - - - - - - -
16/09:30pm 8.3 S 5 7 - - 1.8 - - - - - - -
16/09:00pm 8.4 SSW 5 10 - - 1.8 - - - - - - -
16/08:30pm 8.6 SSW 8 14 - - 1.8 - - - - - - -
16/08:00pm 9.8 SSW 9 17 - - 1.8 - - - - - - -
16/07:30pm 9.0 S 9 15 - - 1.8 - - - - - - -
16/07:00pm 9.6 SSW 9 17 - - 1.8 - - - - - - -
16/06:30pm 9.8 SW 10 21 - - 1.8 - - - - - - -
16/06:00pm 9.5 SSW 7 13 - - 1.8 - - - - - - -
16/05:30pm 9.1 SW 7 11 - - 1.8 - - - - - - -
16/05:00pm 8.1 SSW 8 13 - - 1.8 - - - - - - -
16/04:38pm 9.8 SW 15 26 - - 1.2 - - - - - - -
16/04:30pm 9.4 SW 12 24 - - 1.2 - - - - - - -
16/04:00pm 9.2 SSW 14 23 - - 1.2 - - - - - - -
16/03:30pm 8.9 SW 16 26 - - 0.8 - - - - - - -
16/03:11pm 12.0 WSW 16 26 - - 0.4 - - - - - - -
16/03:00pm 11.6 WSW 15 24 - - 0.4 - - - - - - -
16/02:30pm 11.4 SW 13 22 - - 0.4 - - - - - - -
16/02:00pm 11.8 WSW 15 24 - - 0.4 - - - - - - -
16/01:30pm 12.0 WSW 15 23 - - 0.4 - - - - - - -
16/01:07pm 12.5 WSW 16 29 - - 0.4 - - - - - - -
16/01:00pm 12.2 WSW 16 24 - - 0.4 - - - - - - -
16/12:30pm 12.5 WSW 16 25 - - 0.4 - - - - - - -
16/12:00pm 12.2 WSW 12 20 - - 0.4 - - - - - - -
16/11:30am 12.1 WSW 13 19 - - 0.4 - - - - - - -
16/11:00am 11.7 WSW 15 20 - - 0.4 - - - - - - -
16/10:30am 11.7 WSW 14 22 - - 0.4 - - - - - - -
16/10:00am 11.5 WSW 12 18 - - 0.4 - - - - - - -
16/09:30am 9.5 SW 7 12 - - 0.4 - - - - - - -
16/09:00am 10.8 SW 12 23 - - 1.6 Recent precip. - - - - - -
16/08:30am 11.2 WSW 11 18 - - 1.4 - - - - - - -
16/08:00am 10.2 SW 5 9 - - 1.4 - - - - - - -
16/07:30am 9.3 SSW 4 8 - - 1.4 - - - - - - -
16/07:00am 10.3 SW 11 17 - - 1.4 - - - - - - -
16/06:30am 10.0 SW 7 12 - - 1.4 - - - - - - -

Other Formats:

Comma delimited format used in spreadsheet applications
http://www.bom.gov.au/fwo/IDS60701/IDS60701.94808.axf

JavaScript Object Notation format (JSON) in row-major order
http://www.bom.gov.au/fwo/IDS60701/IDS60701.94808.json